sensor_id;sensor_type;location;lat;lon;timestamp;P1;durP1;ratioP1;P2;durP2;ratioP2
57567;SDS011;43403;51.948;5.922;2023-10-08T00:00:25;14.85;;;4.30;;
57567;SDS011;43403;51.948;5.922;2023-10-08T00:03:12;19.08;;;4.78;;
57567;SDS011;43403;51.948;5.922;2023-10-08T00:05:40;17.80;;;5.22;;
57567;SDS011;43403;51.948;5.922;2023-10-08T00:08:07;22.92;;;4.85;;
57567;SDS011;43403;51.948;5.922;2023-10-08T00:10:38;14.75;;;4.38;;
57567;SDS011;43403;51.948;5.922;2023-10-08T00:13:09;19.23;;;5.00;;
57567;SDS011;43403;51.948;5.922;2023-10-08T00:15:36;25.27;;;5.53;;
57567;SDS011;43403;51.948;5.922;2023-10-08T00:18:03;19.90;;;4.60;;
57567;SDS011;43403;51.948;5.922;2023-10-08T00:20:32;18.90;;;5.25;;
57567;SDS011;43403;51.948;5.922;2023-10-08T00:23:30;14.63;;;4.25;;
57567;SDS011;43403;51.948;5.922;2023-10-08T00:25:56;21.27;;;4.25;;
57567;SDS011;43403;51.948;5.922;2023-10-08T00:28:24;22.52;;;4.70;;
57567;SDS011;43403;51.948;5.922;2023-10-08T00:30:54;15.05;;;4.82;;
57567;SDS011;43403;51.948;5.922;2023-10-08T00:33:21;16.80;;;4.45;;
57567;SDS011;43403;51.948;5.922;2023-10-08T00:35:48;17.15;;;4.18;;
57567;SDS011;43403;51.948;5.922;2023-10-08T00:38:16;21.67;;;4.90;;
57567;SDS011;43403;51.948;5.922;2023-10-08T00:40:47;18.77;;;4.65;;
57567;SDS011;43403;51.948;5.922;2023-10-08T00:43:29;17.10;;;4.90;;
57567;SDS011;43403;51.948;5.922;2023-10-08T00:46:02;23.73;;;4.47;;
57567;SDS011;43403;51.948;5.922;2023-10-08T00:48:30;16.55;;;4.68;;
57567;SDS011;43403;51.948;5.922;2023-10-08T00:51:02;21.75;;;5.05;;
57567;SDS011;43403;51.948;5.922;2023-10-08T00:54:02;19.58;;;5.03;;
57567;SDS011;43403;51.948;5.922;2023-10-08T00:56:34;17.33;;;4.43;;
57567;SDS011;43403;51.948;5.922;2023-10-08T00:59:24;24.83;;;5.03;;
57567;SDS011;43403;51.948;5.922;2023-10-08T01:01:59;15.30;;;4.65;;
57567;SDS011;43403;51.948;5.922;2023-10-08T01:04:32;14.45;;;4.60;;
57567;SDS011;43403;51.948;5.922;2023-10-08T01:07:03;21.90;;;5.20;;
57567;SDS011;43403;51.948;5.922;2023-10-08T01:09:43;23.13;;;5.10;;
57567;SDS011;43403;51.948;5.922;2023-10-08T01:12:15;19.73;;;4.75;;
57567;SDS011;43403;51.948;5.922;2023-10-08T01:15:00;21.23;;;5.22;;
57567;SDS011;43403;51.948;5.922;2023-10-08T01:17:42;21.95;;;5.38;;
57567;SDS011;43403;51.948;5.922;2023-10-08T01:20:18;17.45;;;5.00;;
57567;SDS011;43403;51.948;5.922;2023-10-08T01:23:15;18.23;;;5.07;;
57567;SDS011;43403;51.948;5.922;2023-10-08T01:25:47;21.85;;;5.30;;
57567;SDS011;43403;51.948;5.922;2023-10-08T01:28:19;20.25;;;5.13;;
57567;SDS011;43403;51.948;5.922;2023-10-08T01:31:00;19.67;;;5.35;;
57567;SDS011;43403;51.948;5.922;2023-10-08T01:33:30;18.23;;;4.90;;
57567;SDS011;43403;51.948;5.922;2023-10-08T01:36:04;26.08;;;5.95;;
57567;SDS011;43403;51.948;5.922;2023-10-08T01:38:34;21.90;;;6.50;;
57567;SDS011;43403;51.948;5.922;2023-10-08T01:41:01;26.73;;;6.95;;
57567;SDS011;43403;51.948;5.922;2023-10-08T01:43:45;25.67;;;8.32;;
57567;SDS011;43403;51.948;5.922;2023-10-08T01:46:12;24.20;;;8.75;;
57567;SDS011;43403;51.948;5.922;2023-10-08T01:48:39;31.27;;;10.20;;
57567;SDS011;43403;51.948;5.922;2023-10-08T01:51:06;29.73;;;9.88;;
57567;SDS011;43403;51.948;5.922;2023-10-08T01:53:37;36.50;;;10.10;;
57567;SDS011;43403;51.948;5.922;2023-10-08T01:56:05;29.33;;;9.13;;
57567;SDS011;43403;51.948;5.922;2023-10-08T01:58:31;27.80;;;8.60;;
57567;SDS011;43403;51.948;5.922;2023-10-08T02:01:01;32.08;;;9.38;;
57567;SDS011;43403;51.948;5.922;2023-10-08T02:03:27;26.40;;;7.80;;
57567;SDS011;43403;51.948;5.922;2023-10-08T02:05:54;27.00;;;9.23;;
57567;SDS011;43403;51.948;5.922;2023-10-08T02:08:25;23.60;;;7.53;;
57567;SDS011;43403;51.948;5.922;2023-10-08T02:10:52;24.65;;;8.13;;
57567;SDS011;43403;51.948;5.922;2023-10-08T02:13:19;22.17;;;7.70;;
57567;SDS011;43403;51.948;5.922;2023-10-08T02:15:47;25.48;;;8.13;;
57567;SDS011;43403;51.948;5.922;2023-10-08T02:18:20;26.55;;;7.28;;
57567;SDS011;43403;51.948;5.922;2023-10-08T02:20:50;22.10;;;6.80;;
57567;SDS011;43403;51.948;5.922;2023-10-08T02:23:16;27.08;;;7.07;;
57567;SDS011;43403;51.948;5.922;2023-10-08T02:25:44;17.73;;;6.50;;
57567;SDS011;43403;51.948;5.922;2023-10-08T02:28:10;21.80;;;6.40;;
57567;SDS011;43403;51.948;5.922;2023-10-08T02:30:42;17.83;;;6.15;;
57567;SDS011;43403;51.948;5.922;2023-10-08T02:33:09;25.08;;;6.40;;
57567;SDS011;43403;51.948;5.922;2023-10-08T02:35:42;17.13;;;6.15;;
57567;SDS011;43403;51.948;5.922;2023-10-08T02:38:11;18.73;;;6.47;;
57567;SDS011;43403;51.948;5.922;2023-10-08T02:40:43;18.33;;;5.88;;
57567;SDS011;43403;51.948;5.922;2023-10-08T02:43:13;16.83;;;5.57;;
57567;SDS011;43403;51.948;5.922;2023-10-08T02:45:41;23.90;;;5.82;;
57567;SDS011;43403;51.948;5.922;2023-10-08T02:48:10;15.15;;;4.93;;
57567;SDS011;43403;51.948;5.922;2023-10-08T02:50:41;17.00;;;6.18;;
57567;SDS011;43403;51.948;5.922;2023-10-08T02:53:10;15.32;;;5.57;;
57567;SDS011;43403;51.948;5.922;2023-10-08T02:55:38;19.60;;;5.68;;
57567;SDS011;43403;51.948;5.922;2023-10-08T02:58:10;16.50;;;6.40;;
57567;SDS011;43403;51.948;5.922;2023-10-08T03:00:44;15.98;;;5.80;;
57567;SDS011;43403;51.948;5.922;2023-10-08T03:03:15;19.17;;;5.50;;
57567;SDS011;43403;51.948;5.922;2023-10-08T03:05:46;19.67;;;5.80;;
57567;SDS011;43403;51.948;5.922;2023-10-08T03:08:14;20.98;;;6.45;;
57567;SDS011;43403;51.948;5.922;2023-10-08T03:10:50;16.98;;;6.03;;
57567;SDS011;43403;51.948;5.922;2023-10-08T03:13:22;17.35;;;6.07;;
57567;SDS011;43403;51.948;5.922;2023-10-08T03:15:49;19.45;;;6.40;;
57567;SDS011;43403;51.948;5.922;2023-10-08T03:18:27;14.80;;;6.15;;
57567;SDS011;43403;51.948;5.922;2023-10-08T03:21:04;19.27;;;6.28;;
57567;SDS011;43403;51.948;5.922;2023-10-08T03:23:49;19.42;;;6.95;;
57567;SDS011;43403;51.948;5.922;2023-10-08T03:26:23;16.15;;;5.88;;
57567;SDS011;43403;51.948;5.922;2023-10-08T03:29:00;18.10;;;6.28;;
57567;SDS011;43403;51.948;5.922;2023-10-08T03:31:32;13.15;;;5.35;;
57567;SDS011;43403;51.948;5.922;2023-10-08T03:34:19;15.60;;;5.43;;
57567;SDS011;43403;51.948;5.922;2023-10-08T03:36:47;16.60;;;6.27;;
57567;SDS011;43403;51.948;5.922;2023-10-08T03:39:16;17.15;;;6.28;;
57567;SDS011;43403;51.948;5.922;2023-10-08T03:41:47;18.40;;;6.13;;
57567;SDS011;43403;51.948;5.922;2023-10-08T03:44:32;20.27;;;6.40;;
57567;SDS011;43403;51.948;5.922;2023-10-08T03:47:04;19.75;;;6.00;;
57567;SDS011;43403;51.948;5.922;2023-10-08T03:49:37;19.42;;;6.75;;
57567;SDS011;43403;51.948;5.922;2023-10-08T03:52:11;17.83;;;6.28;;
57567;SDS011;43403;51.948;5.922;2023-10-08T03:54:41;13.98;;;5.53;;
57567;SDS011;43403;51.948;5.922;2023-10-08T03:57:26;16.90;;;6.32;;
57567;SDS011;43403;51.948;5.922;2023-10-08T04:00:11;13.02;;;5.47;;
57567;SDS011;43403;51.948;5.922;2023-10-08T04:02:41;16.00;;;5.75;;
57567;SDS011;43403;51.948;5.922;2023-10-08T04:05:13;17.10;;;6.10;;
57567;SDS011;43403;51.948;5.922;2023-10-08T04:07:46;17.05;;;5.60;;
57567;SDS011;43403;51.948;5.922;2023-10-08T04:10:29;25.05;;;7.07;;
57567;SDS011;43403;51.948;5.922;2023-10-08T04:13:16;22.70;;;7.07;;
57567;SDS011;43403;51.948;5.922;2023-10-08T04:15:42;17.33;;;6.25;;
57567;SDS011;43403;51.948;5.922;2023-10-08T04:18:09;22.63;;;6.57;;
57567;SDS011;43403;51.948;5.922;2023-10-08T04:20:37;20.55;;;6.47;;
57567;SDS011;43403;51.948;5.922;2023-10-08T04:23:07;18.75;;;7.30;;
57567;SDS011;43403;51.948;5.922;2023-10-08T04:25:40;21.58;;;7.47;;
57567;SDS011;43403;51.948;5.922;2023-10-08T04:28:09;18.60;;;6.40;;
57567;SDS011;43403;51.948;5.922;2023-10-08T04:30:40;18.85;;;7.20;;
57567;SDS011;43403;51.948;5.922;2023-10-08T04:33:08;22.23;;;8.00;;
57567;SDS011;43403;51.948;5.922;2023-10-08T04:35:39;17.55;;;6.65;;
57567;SDS011;43403;51.948;5.922;2023-10-08T04:38:28;19.50;;;7.47;;
57567;SDS011;43403;51.948;5.922;2023-10-08T04:40:55;17.92;;;7.25;;
57567;SDS011;43403;51.948;5.922;2023-10-08T04:43:28;19.92;;;7.53;;
57567;SDS011;43403;51.948;5.922;2023-10-08T04:45:57;17.13;;;5.72;;
57567;SDS011;43403;51.948;5.922;2023-10-08T04:48:25;15.18;;;5.75;;
57567;SDS011;43403;51.948;5.922;2023-10-08T04:50:56;20.63;;;5.40;;
57567;SDS011;43403;51.948;5.922;2023-10-08T04:53:26;19.60;;;5.05;;
57567;SDS011;43403;51.948;5.922;2023-10-08T04:58:33;12.02;;;4.03;;
57567;SDS011;43403;51.948;5.922;2023-10-08T05:01:03;15.35;;;4.65;;
57567;SDS011;43403;51.948;5.922;2023-10-08T05:03:48;21.00;;;4.15;;
57567;SDS011;43403;51.948;5.922;2023-10-08T05:06:25;17.20;;;4.95;;
57567;SDS011;43403;51.948;5.922;2023-10-08T05:09:21;18.83;;;5.25;;
57567;SDS011;43403;51.948;5.922;2023-10-08T05:11:47;19.73;;;4.50;;
57567;SDS011;43403;51.948;5.922;2023-10-08T05:14:18;15.35;;;4.43;;
57567;SDS011;43403;51.948;5.922;2023-10-08T05:17:04;16.48;;;3.83;;
57567;SDS011;43403;51.948;5.922;2023-10-08T05:19:44;16.95;;;4.38;;
57567;SDS011;43403;51.948;5.922;2023-10-08T05:22:17;13.98;;;4.25;;
57567;SDS011;43403;51.948;5.922;2023-10-08T05:24:48;14.90;;;3.95;;
57567;SDS011;43403;51.948;5.922;2023-10-08T05:27:34;17.08;;;4.60;;
57567;SDS011;43403;51.948;5.922;2023-10-08T05:30:26;16.23;;;4.13;;
57567;SDS011;43403;51.948;5.922;2023-10-08T05:32:54;16.90;;;4.03;;
57567;SDS011;43403;51.948;5.922;2023-10-08T05:35:41;12.95;;;4.20;;
57567;SDS011;43403;51.948;5.922;2023-10-08T05:41:04;11.43;;;3.53;;
57567;SDS011;43403;51.948;5.922;2023-10-08T05:43:32;13.60;;;4.20;;
57567;SDS011;43403;51.948;5.922;2023-10-08T05:46:13;8.73;;;3.33;;
57567;SDS011;43403;51.948;5.922;2023-10-08T05:48:53;13.18;;;3.85;;
57567;SDS011;43403;51.948;5.922;2023-10-08T05:51:42;6.95;;;2.88;;
57567;SDS011;43403;51.948;5.922;2023-10-08T05:54:19;6.82;;;3.20;;
57567;SDS011;43403;51.948;5.922;2023-10-08T05:57:05;13.80;;;3.38;;
57567;SDS011;43403;51.948;5.922;2023-10-08T06:02:23;11.57;;;3.30;;
57567;SDS011;43403;51.948;5.922;2023-10-08T06:10:17;10.30;;;2.88;;
57567;SDS011;43403;51.948;5.922;2023-10-08T06:13:09;9.25;;;2.70;;
57567;SDS011;43403;51.948;5.922;2023-10-08T06:15:43;9.43;;;3.10;;
57567;SDS011;43403;51.948;5.922;2023-10-08T06:18:15;10.45;;;3.25;;
57567;SDS011;43403;51.948;5.922;2023-10-08T06:20:45;8.00;;;2.78;;
57567;SDS011;43403;51.948;5.922;2023-10-08T06:23:12;9.70;;;2.90;;
57567;SDS011;43403;51.948;5.922;2023-10-08T06:25:45;8.23;;;2.95;;
57567;SDS011;43403;51.948;5.922;2023-10-08T06:28:18;9.82;;;2.67;;
57567;SDS011;43403;51.948;5.922;2023-10-08T06:30:46;9.18;;;2.47;;
57567;SDS011;43403;51.948;5.922;2023-10-08T06:33:14;9.13;;;2.17;;
57567;SDS011;43403;51.948;5.922;2023-10-08T06:35:41;9.48;;;2.72;;
57567;SDS011;43403;51.948;5.922;2023-10-08T06:38:11;8.73;;;2.60;;
57567;SDS011;43403;51.948;5.922;2023-10-08T06:40:41;8.45;;;2.47;;
57567;SDS011;43403;51.948;5.922;2023-10-08T06:43:09;7.20;;;2.50;;
57567;SDS011;43403;51.948;5.922;2023-10-08T06:45:43;10.15;;;2.80;;
57567;SDS011;43403;51.948;5.922;2023-10-08T06:48:11;5.15;;;2.33;;
57567;SDS011;43403;51.948;5.922;2023-10-08T06:50:45;7.70;;;2.67;;
57567;SDS011;43403;51.948;5.922;2023-10-08T06:53:12;5.72;;;2.42;;
57567;SDS011;43403;51.948;5.922;2023-10-08T06:55:44;11.07;;;2.63;;
57567;SDS011;43403;51.948;5.922;2023-10-08T06:58:11;8.02;;;2.60;;
57567;SDS011;43403;51.948;5.922;2023-10-08T07:00:38;6.50;;;2.20;;
57567;SDS011;43403;51.948;5.922;2023-10-08T07:03:16;9.05;;;2.65;;
57567;SDS011;43403;51.948;5.922;2023-10-08T07:05:45;5.45;;;2.40;;
57567;SDS011;43403;51.948;5.922;2023-10-08T07:08:28;6.32;;;3.65;;
57567;SDS011;43403;51.948;5.922;2023-10-08T07:11:00;5.40;;;3.42;;
57567;SDS011;43403;51.948;5.922;2023-10-08T07:13:32;6.43;;;3.15;;
57567;SDS011;43403;51.948;5.922;2023-10-08T07:16:02;7.53;;;3.45;;
57567;SDS011;43403;51.948;5.922;2023-10-08T07:18:30;5.32;;;3.05;;
57567;SDS011;43403;51.948;5.922;2023-10-08T07:21:00;8.65;;;4.07;;
57567;SDS011;43403;51.948;5.922;2023-10-08T07:23:38;6.40;;;3.70;;
57567;SDS011;43403;51.948;5.922;2023-10-08T07:26:23;7.20;;;4.22;;
57567;SDS011;43403;51.948;5.922;2023-10-08T07:28:50;6.32;;;4.10;;
57567;SDS011;43403;51.948;5.922;2023-10-08T07:31:22;6.20;;;3.53;;
57567;SDS011;43403;51.948;5.922;2023-10-08T07:33:51;8.48;;;3.95;;
57567;SDS011;43403;51.948;5.922;2023-10-08T07:36:23;8.65;;;3.70;;
57567;SDS011;43403;51.948;5.922;2023-10-08T07:38:51;7.97;;;4.22;;
57567;SDS011;43403;51.948;5.922;2023-10-08T07:41:18;7.33;;;3.97;;
57567;SDS011;43403;51.948;5.922;2023-10-08T07:43:47;6.90;;;3.40;;
57567;SDS011;43403;51.948;5.922;2023-10-08T07:46:22;6.60;;;4.03;;
57567;SDS011;43403;51.948;5.922;2023-10-08T07:48:49;6.03;;;4.22;;
57567;SDS011;43403;51.948;5.922;2023-10-08T07:51:16;7.72;;;4.22;;
57567;SDS011;43403;51.948;5.922;2023-10-08T07:53:50;9.45;;;4.53;;
57567;SDS011;43403;51.948;5.922;2023-10-08T07:56:22;9.00;;;3.80;;
57567;SDS011;43403;51.948;5.922;2023-10-08T07:58:52;6.93;;;4.53;;
57567;SDS011;43403;51.948;5.922;2023-10-08T08:01:23;6.10;;;4.22;;
57567;SDS011;43403;51.948;5.922;2023-10-08T08:06:18;8.35;;;4.63;;
57567;SDS011;43403;51.948;5.922;2023-10-08T08:08:44;8.82;;;4.78;;
57567;SDS011;43403;51.948;5.922;2023-10-08T08:11:11;9.50;;;5.45;;
57567;SDS011;43403;51.948;5.922;2023-10-08T08:13:44;8.45;;;5.00;;
57567;SDS011;43403;51.948;5.922;2023-10-08T08:16:11;8.65;;;4.93;;
57567;SDS011;43403;51.948;5.922;2023-10-08T08:18:48;7.78;;;3.85;;
57567;SDS011;43403;51.948;5.922;2023-10-08T08:21:18;10.63;;;4.30;;
57567;SDS011;43403;51.948;5.922;2023-10-08T08:23:46;8.85;;;3.00;;
57567;SDS011;43403;51.948;5.922;2023-10-08T08:26:17;6.63;;;3.30;;
57567;SDS011;43403;51.948;5.922;2023-10-08T08:29:01;8.77;;;3.75;;
57567;SDS011;43403;51.948;5.922;2023-10-08T08:31:29;7.85;;;4.15;;
57567;SDS011;43403;51.948;5.922;2023-10-08T08:34:02;7.10;;;3.67;;
57567;SDS011;43403;51.948;5.922;2023-10-08T08:36:30;7.50;;;3.50;;
57567;SDS011;43403;51.948;5.922;2023-10-08T08:38:58;6.78;;;3.75;;
57567;SDS011;43403;51.948;5.922;2023-10-08T08:41:25;7.43;;;3.90;;
57567;SDS011;43403;51.948;5.922;2023-10-08T08:43:52;9.00;;;3.50;;
57567;SDS011;43403;51.948;5.922;2023-10-08T08:46:27;6.57;;;3.25;;
57567;SDS011;43403;51.948;5.922;2023-10-08T08:48:58;8.05;;;3.13;;
57567;SDS011;43403;51.948;5.922;2023-10-08T08:51:34;8.13;;;3.10;;
57567;SDS011;43403;51.948;5.922;2023-10-08T08:54:02;7.47;;;3.53;;
57567;SDS011;43403;51.948;5.922;2023-10-08T08:56:33;9.60;;;2.90;;
57567;SDS011;43403;51.948;5.922;2023-10-08T08:59:01;8.30;;;2.67;;
57567;SDS011;43403;51.948;5.922;2023-10-08T09:01:28;7.13;;;2.97;;
57567;SDS011;43403;51.948;5.922;2023-10-08T09:04:00;6.47;;;2.55;;
57567;SDS011;43403;51.948;5.922;2023-10-08T09:06:28;4.88;;;2.65;;
57567;SDS011;43403;51.948;5.922;2023-10-08T09:08:55;6.90;;;2.95;;
57567;SDS011;43403;51.948;5.922;2023-10-08T09:11:39;5.22;;;2.60;;
57567;SDS011;43403;51.948;5.922;2023-10-08T09:14:09;6.43;;;2.30;;
57567;SDS011;43403;51.948;5.922;2023-10-08T09:16:37;7.55;;;3.45;;
57567;SDS011;43403;51.948;5.922;2023-10-08T09:19:04;8.63;;;2.33;;
57567;SDS011;43403;51.948;5.922;2023-10-08T09:21:38;7.47;;;2.17;;
57567;SDS011;43403;51.948;5.922;2023-10-08T09:24:05;5.22;;;1.80;;
57567;SDS011;43403;51.948;5.922;2023-10-08T09:26:37;7.90;;;2.47;;
57567;SDS011;43403;51.948;5.922;2023-10-08T09:29:07;6.03;;;2.20;;
57567;SDS011;43403;51.948;5.922;2023-10-08T09:31:34;6.70;;;2.10;;
57567;SDS011;43403;51.948;5.922;2023-10-08T09:34:02;6.75;;;1.92;;
57567;SDS011;43403;51.948;5.922;2023-10-08T09:36:29;4.90;;;1.50;;
57567;SDS011;43403;51.948;5.922;2023-10-08T09:39:02;5.75;;;1.65;;
57567;SDS011;43403;51.948;5.922;2023-10-08T09:41:31;4.93;;;1.40;;
57567;SDS011;43403;51.948;5.922;2023-10-08T09:43:59;3.33;;;1.55;;
57567;SDS011;43403;51.948;5.922;2023-10-08T09:46:29;5.82;;;1.58;;
57567;SDS011;43403;51.948;5.922;2023-10-08T09:49:00;4.90;;;1.63;;
57567;SDS011;43403;51.948;5.922;2023-10-08T09:51:30;4.45;;;1.60;;
57567;SDS011;43403;51.948;5.922;2023-10-08T09:54:06;2.40;;;1.27;;
57567;SDS011;43403;51.948;5.922;2023-10-08T09:56:40;4.07;;;1.50;;
57567;SDS011;43403;51.948;5.922;2023-10-08T09:59:10;4.30;;;1.73;;
57567;SDS011;43403;51.948;5.922;2023-10-08T10:01:38;5.05;;;1.40;;
57567;SDS011;43403;51.948;5.922;2023-10-08T10:04:10;5.47;;;1.60;;
57567;SDS011;43403;51.948;5.922;2023-10-08T10:06:38;3.88;;;1.67;;
57567;SDS011;43403;51.948;5.922;2023-10-08T10:09:06;9.75;;;1.73;;
57567;SDS011;43403;51.948;5.922;2023-10-08T10:11:48;6.20;;;2.10;;
57567;SDS011;43403;51.948;5.922;2023-10-08T10:14:21;3.95;;;1.40;;
57567;SDS011;43403;51.948;5.922;2023-10-08T10:17:09;4.28;;;1.60;;
57567;SDS011;43403;51.948;5.922;2023-10-08T10:19:44;5.78;;;1.80;;
57567;SDS011;43403;51.948;5.922;2023-10-08T10:22:16;3.85;;;1.50;;
57567;SDS011;43403;51.948;5.922;2023-10-08T10:24:54;4.53;;;1.50;;
57567;SDS011;43403;51.948;5.922;2023-10-08T10:27:22;5.45;;;1.60;;
57567;SDS011;43403;51.948;5.922;2023-10-08T10:29:49;3.80;;;1.42;;
57567;SDS011;43403;51.948;5.922;2023-10-08T10:32:16;3.58;;;2.50;;
57567;SDS011;43403;51.948;5.922;2023-10-08T10:34:43;6.45;;;2.20;;
57567;SDS011;43403;51.948;5.922;2023-10-08T10:37:10;3.83;;;1.52;;
57567;SDS011;43403;51.948;5.922;2023-10-08T10:39:52;4.43;;;1.77;;
57567;SDS011;43403;51.948;5.922;2023-10-08T10:42:21;4.05;;;1.40;;
57567;SDS011;43403;51.948;5.922;2023-10-08T10:44:49;4.53;;;1.60;;
57567;SDS011;43403;51.948;5.922;2023-10-08T10:47:16;4.72;;;1.88;;
57567;SDS011;43403;51.948;5.922;2023-10-08T10:49:45;4.03;;;1.63;;
57567;SDS011;43403;51.948;5.922;2023-10-08T10:52:19;2.95;;;1.35;;
57567;SDS011;43403;51.948;5.922;2023-10-08T10:55:11;2.83;;;1.52;;
57567;SDS011;43403;51.948;5.922;2023-10-08T10:57:49;3.13;;;1.63;;
57567;SDS011;43403;51.948;5.922;2023-10-08T11:00:41;4.45;;;1.50;;
57567;SDS011;43403;51.948;5.922;2023-10-08T11:03:08;3.38;;;1.20;;
57567;SDS011;43403;51.948;5.922;2023-10-08T11:05:53;6.68;;;1.90;;
57567;SDS011;43403;51.948;5.922;2023-10-08T11:08:26;2.60;;;1.67;;
57567;SDS011;43403;51.948;5.922;2023-10-08T11:11:01;3.60;;;1.75;;
57567;SDS011;43403;51.948;5.922;2023-10-08T11:13:34;7.60;;;1.90;;
57567;SDS011;43403;51.948;5.922;2023-10-08T11:16:06;3.42;;;1.70;;
57567;SDS011;43403;51.948;5.922;2023-10-08T11:18:43;2.47;;;1.33;;
57567;SDS011;43403;51.948;5.922;2023-10-08T11:21:13;5.10;;;1.65;;
57567;SDS011;43403;51.948;5.922;2023-10-08T11:23:45;6.72;;;1.98;;
57567;SDS011;43403;51.948;5.922;2023-10-08T11:26:22;2.65;;;1.60;;
57567;SDS011;43403;51.948;5.922;2023-10-08T11:28:59;3.15;;;1.63;;
57567;SDS011;43403;51.948;5.922;2023-10-08T11:31:30;2.30;;;1.30;;
57567;SDS011;43403;51.948;5.922;2023-10-08T11:34:01;4.07;;;1.40;;
57567;SDS011;43403;51.948;5.922;2023-10-08T11:36:37;4.38;;;1.40;;
57567;SDS011;43403;51.948;5.922;2023-10-08T11:39:20;3.10;;;1.48;;
57567;SDS011;43403;51.948;5.922;2023-10-08T11:41:57;2.88;;;1.77;;
57567;SDS011;43403;51.948;5.922;2023-10-08T11:44:24;2.55;;;1.23;;
57567;SDS011;43403;51.948;5.922;2023-10-08T11:46:57;5.00;;;2.10;;
57567;SDS011;43403;51.948;5.922;2023-10-08T11:49:31;5.43;;;2.67;;
57567;SDS011;43403;51.948;5.922;2023-10-08T11:52:02;3.25;;;1.30;;
57567;SDS011;43403;51.948;5.922;2023-10-08T11:54:30;2.43;;;1.60;;
57567;SDS011;43403;51.948;5.922;2023-10-08T11:56:59;3.08;;;1.63;;
57567;SDS011;43403;51.948;5.922;2023-10-08T11:59:29;3.33;;;1.67;;
57567;SDS011;43403;51.948;5.922;2023-10-08T12:01:56;4.00;;;1.80;;
57567;SDS011;43403;51.948;5.922;2023-10-08T12:04:23;4.78;;;1.70;;
57567;SDS011;43403;51.948;5.922;2023-10-08T12:06:49;2.28;;;1.23;;
57567;SDS011;43403;51.948;5.922;2023-10-08T12:09:18;3.15;;;1.75;;
57567;SDS011;43403;51.948;5.922;2023-10-08T12:11:48;3.50;;;1.60;;
57567;SDS011;43403;51.948;5.922;2023-10-08T12:14:15;3.50;;;1.58;;
57567;SDS011;43403;51.948;5.922;2023-10-08T12:16:41;4.07;;;1.73;;
57567;SDS011;43403;51.948;5.922;2023-10-08T12:19:09;3.40;;;1.70;;
57567;SDS011;43403;51.948;5.922;2023-10-08T12:21:43;6.57;;;1.83;;
57567;SDS011;43403;51.948;5.922;2023-10-08T12:24:13;4.30;;;1.77;;
57567;SDS011;43403;51.948;5.922;2023-10-08T12:26:40;5.10;;;2.20;;
57567;SDS011;43403;51.948;5.922;2023-10-08T12:29:13;5.80;;;2.08;;
57567;SDS011;43403;51.948;5.922;2023-10-08T12:31:40;6.25;;;3.70;;
57567;SDS011;43403;51.948;5.922;2023-10-08T12:34:07;3.85;;;1.88;;
57567;SDS011;43403;51.948;5.922;2023-10-08T12:36:38;3.58;;;2.10;;
57567;SDS011;43403;51.948;5.922;2023-10-08T12:39:05;3.00;;;2.33;;
57567;SDS011;43403;51.948;5.922;2023-10-08T12:41:41;5.30;;;2.28;;
57567;SDS011;43403;51.948;5.922;2023-10-08T12:44:11;2.50;;;1.83;;
57567;SDS011;43403;51.948;5.922;2023-10-08T12:46:39;4.38;;;1.75;;
57567;SDS011;43403;51.948;5.922;2023-10-08T12:49:05;3.67;;;2.00;;
57567;SDS011;43403;51.948;5.922;2023-10-08T12:51:33;3.30;;;1.80;;
57567;SDS011;43403;51.948;5.922;2023-10-08T12:54:00;4.00;;;2.47;;
57567;SDS011;43403;51.948;5.922;2023-10-08T12:56:34;2.90;;;1.80;;
57567;SDS011;43403;51.948;5.922;2023-10-08T12:59:15;3.45;;;1.70;;
57567;SDS011;43403;51.948;5.922;2023-10-08T13:01:48;3.97;;;1.92;;
57567;SDS011;43403;51.948;5.922;2023-10-08T13:04:21;4.60;;;2.10;;
57567;SDS011;43403;51.948;5.922;2023-10-08T13:06:55;2.97;;;1.55;;
57567;SDS011;43403;51.948;5.922;2023-10-08T13:09:24;3.63;;;1.67;;
57567;SDS011;43403;51.948;5.922;2023-10-08T13:11:51;1.92;;;1.40;;
57567;SDS011;43403;51.948;5.922;2023-10-08T13:14:18;3.15;;;1.60;;
57567;SDS011;43403;51.948;5.922;2023-10-08T13:16:44;4.63;;;1.50;;
57567;SDS011;43403;51.948;5.922;2023-10-08T13:19:11;4.35;;;1.48;;
57567;SDS011;43403;51.948;5.922;2023-10-08T13:21:38;4.20;;;1.25;;
57567;SDS011;43403;51.948;5.922;2023-10-08T13:24:05;3.63;;;1.88;;
57567;SDS011;43403;51.948;5.922;2023-10-08T13:26:35;6.03;;;2.00;;
57567;SDS011;43403;51.948;5.922;2023-10-08T13:29:04;3.58;;;1.65;;
57567;SDS011;43403;51.948;5.922;2023-10-08T13:31:32;4.18;;;1.50;;
57567;SDS011;43403;51.948;5.922;2023-10-08T13:34:03;3.90;;;1.85;;
57567;SDS011;43403;51.948;5.922;2023-10-08T13:36:38;6.78;;;2.15;;
57567;SDS011;43403;51.948;5.922;2023-10-08T13:39:06;4.38;;;2.20;;
57567;SDS011;43403;51.948;5.922;2023-10-08T13:41:37;7.05;;;2.53;;
57567;SDS011;43403;51.948;5.922;2023-10-08T13:44:08;4.30;;;1.92;;
57567;SDS011;43403;51.948;5.922;2023-10-08T13:46:34;4.70;;;2.10;;
57567;SDS011;43403;51.948;5.922;2023-10-08T13:49:03;5.15;;;2.33;;
57567;SDS011;43403;51.948;5.922;2023-10-08T13:51:32;4.88;;;2.15;;
57567;SDS011;43403;51.948;5.922;2023-10-08T13:54:01;5.68;;;2.17;;
57567;SDS011;43403;51.948;5.922;2023-10-08T13:56:33;4.03;;;2.40;;
57567;SDS011;43403;51.948;5.922;2023-10-08T13:59:00;4.18;;;2.83;;
57567;SDS011;43403;51.948;5.922;2023-10-08T14:01:40;3.58;;;2.30;;
57567;SDS011;43403;51.948;5.922;2023-10-08T14:04:12;8.52;;;3.10;;
57567;SDS011;43403;51.948;5.922;2023-10-08T14:06:44;4.47;;;2.58;;
57567;SDS011;43403;51.948;5.922;2023-10-08T14:09:19;5.13;;;3.40;;
57567;SDS011;43403;51.948;5.922;2023-10-08T14:11:47;6.25;;;3.22;;
57567;SDS011;43403;51.948;5.922;2023-10-08T14:14:16;5.30;;;3.03;;
57567;SDS011;43403;51.948;5.922;2023-10-08T14:16:47;5.13;;;3.30;;
57567;SDS011;43403;51.948;5.922;2023-10-08T14:19:18;5.90;;;3.15;;
57567;SDS011;43403;51.948;5.922;2023-10-08T14:21:49;5.75;;;3.75;;
57567;SDS011;43403;51.948;5.922;2023-10-08T14:24:20;6.75;;;4.38;;
57567;SDS011;43403;51.948;5.922;2023-10-08T14:26:47;6.72;;;4.43;;
57567;SDS011;43403;51.948;5.922;2023-10-08T14:29:21;7.20;;;4.43;;
57567;SDS011;43403;51.948;5.922;2023-10-08T14:31:50;7.65;;;5.22;;
57567;SDS011;43403;51.948;5.922;2023-10-08T14:34:20;9.30;;;5.63;;
57567;SDS011;43403;51.948;5.922;2023-10-08T14:37:07;8.55;;;5.30;;
57567;SDS011;43403;51.948;5.922;2023-10-08T14:39:53;10.40;;;5.32;;
57567;SDS011;43403;51.948;5.922;2023-10-08T14:42:38;6.90;;;4.10;;
57567;SDS011;43403;51.948;5.922;2023-10-08T14:45:29;10.07;;;5.80;;
57567;SDS011;43403;51.948;5.922;2023-10-08T14:47:58;7.40;;;5.00;;
57567;SDS011;43403;51.948;5.922;2023-10-08T14:50:26;10.15;;;4.90;;
57567;SDS011;43403;51.948;5.922;2023-10-08T14:52:59;7.13;;;4.50;;
57567;SDS011;43403;51.948;5.922;2023-10-08T14:55:28;11.98;;;5.05;;
57567;SDS011;43403;51.948;5.922;2023-10-08T14:57:55;8.95;;;5.00;;
57567;SDS011;43403;51.948;5.922;2023-10-08T15:00:22;6.97;;;3.95;;
57567;SDS011;43403;51.948;5.922;2023-10-08T15:02:56;6.63;;;3.88;;
57567;SDS011;43403;51.948;5.922;2023-10-08T15:05:24;5.32;;;3.45;;
57567;SDS011;43403;51.948;5.922;2023-10-08T15:07:51;5.47;;;2.67;;
57567;SDS011;43403;51.948;5.922;2023-10-08T15:10:18;5.77;;;2.70;;
57567;SDS011;43403;51.948;5.922;2023-10-08T15:12:48;4.78;;;2.53;;
57567;SDS011;43403;51.948;5.922;2023-10-08T15:15:18;5.40;;;2.50;;
57567;SDS011;43403;51.948;5.922;2023-10-08T15:17:45;7.55;;;2.67;;
57567;SDS011;43403;51.948;5.922;2023-10-08T15:22:43;5.22;;;2.85;;
57567;SDS011;43403;51.948;5.922;2023-10-08T15:25:11;7.97;;;2.53;;
57567;SDS011;43403;51.948;5.922;2023-10-08T15:27:39;9.25;;;2.97;;
57567;SDS011;43403;51.948;5.922;2023-10-08T15:30:10;6.05;;;2.40;;